Time;durP1;ratioP1;P1;durP2;ratioP2;P2;SDS_P1;SDS_P2;PMS_P1;PMS_P2;Temp;Humidity;BMP_temperature;BMP_pressure;BME280_temperature;BME280_humidity;BME280_pressure;Samples;Min_cycle;Max_cycle;Signal;HPM_P1;HPM_P2
2021/05/09 00:01:25;;;;;;;3.40;3.08;;;10.70;99.90;;;;;;5054073;28;20192;-65
2021/05/09 00:03:51;;;;;;;3.85;2.60;;;10.60;99.90;;;;;;5053691;28;20203;-65
2021/05/09 00:06:16;;;;;;;3.23;2.93;;;10.60;99.90;;;;;;5054093;28;20606;-65
2021/05/09 00:08:42;;;;;;;5.20;3.03;;;10.70;99.90;;;;;;5054058;28;20431;-66
2021/05/09 00:11:08;;;;;;;3.70;3.03;;;10.70;99.90;;;;;;5053969;28;20204;-65
2021/05/09 00:13:34;;;;;;;3.43;3.13;;;10.80;99.90;;;;;;5053693;28;20268;-65
2021/05/09 00:16:00;;;;;;;4.53;3.30;;;10.80;99.90;;;;;;5053339;28;20456;-65
2021/05/09 00:18:26;;;;;;;4.30;2.73;;;10.80;99.90;;;;;;5053554;28;20221;-65
2021/05/09 00:20:52;;;;;;;3.35;3.13;;;10.80;99.90;;;;;;5053881;28;20899;-65
2021/05/09 00:23:18;;;;;;;3.90;3.03;;;10.80;99.90;;;;;;5053935;28;20185;-65
2021/05/09 00:25:44;;;;;;;3.10;2.80;;;10.70;99.90;;;;;;5053591;28;20281;-65
2021/05/09 00:28:09;;;;;;;3.30;3.00;;;10.70;99.90;;;;;;5052825;28;20672;-65
2021/05/09 00:30:35;;;;;;;4.17;3.23;;;10.70;99.90;;;;;;5053604;28;20423;-65
2021/05/09 00:33:01;;;;;;;4.40;3.00;;;10.80;99.90;;;;;;5053653;28;20229;-64
2021/05/09 00:35:26;;;;;;;3.30;3.03;;;10.70;99.90;;;;;;5053388;28;20616;-63
2021/05/09 00:37:52;;;;;;;4.00;3.43;;;10.70;99.90;;;;;;5053475;28;20286;-63
2021/05/09 00:40:17;;;;;;;4.00;2.97;;;10.80;99.90;;;;;;5053557;28;20173;-63
2021/05/09 00:42:43;;;;;;;3.13;2.83;;;10.80;99.90;;;;;;5053514;28;20633;-63
2021/05/09 00:45:09;;;;;;;3.00;2.80;;;10.80;99.90;;;;;;5053144;28;20173;-63
2021/05/09 00:47:34;;;;;;;3.43;2.70;;;10.90;99.90;;;;;;5053441;28;20625;-63
2021/05/09 00:50:00;;;;;;;3.70;3.00;;;10.90;99.90;;;;;;5053615;28;20757;-63
2021/05/09 00:52:27;;;;;;;5.20;3.10;;;10.90;99.90;;;;;;5053089;28;20498;-63
2021/05/09 00:54:57;;;;;;;4.68;3.45;;;11.00;99.90;;;;;;5052728;28;20256;-63
2021/05/09 00:57:24;;;;;;;4.35;3.38;;;11.00;99.90;;;;;;5052939;28;20299;-63
2021/05/09 00:59:51;;;;;;;3.38;3.00;;;11.00;99.90;;;;;;5053201;28;20184;-63
2021/05/09 01:02:17;;;;;;;5.05;2.80;;;11.00;99.90;;;;;;5053151;28;20173;-62
2021/05/09 01:04:47;;;;;;;2.70;2.45;;;11.00;99.90;;;;;;5052860;28;20185;-62
2021/05/09 01:07:14;;;;;;;3.20;3.00;;;10.90;99.90;;;;;;5052988;28;20189;-63
2021/05/09 01:09:40;;;;;;;3.95;3.05;;;10.90;99.90;;;;;;5051958;28;20216;-63
2021/05/09 01:12:10;;;;;;;3.75;3.00;;;11.00;99.90;;;;;;5053018;28;20275;-62
2021/05/09 01:14:36;;;;;;;3.75;3.45;;;10.90;99.90;;;;;;5052437;28;20184;-62
2021/05/09 01:17:01;;;;;;;4.20;3.27;;;11.00;99.90;;;;;;5053133;28;20733;-63
2021/05/09 01:19:27;;;;;;;3.20;2.70;;;11.00;99.90;;;;;;5053214;28;20219;-63
2021/05/09 01:21:52;;;;;;;2.83;2.50;;;11.20;99.90;;;;;;5052953;28;20179;-63
2021/05/09 01:24:18;;;;;;;4.70;3.40;;;11.20;99.90;;;;;;5052558;28;20169;-62
2021/05/09 01:26:44;;;;;;;2.40;2.20;;;11.20;99.90;;;;;;5052816;28;20629;-63
2021/05/09 01:29:09;;;;;;;4.00;3.13;;;11.40;99.90;;;;;;5052703;28;20239;-63
2021/05/09 01:31:38;;;;;;;3.53;3.07;;;11.50;99.90;;;;;;5051655;28;20191;-63
2021/05/09 01:34:04;;;;;;;3.90;3.08;;;11.50;99.90;;;;;;5052543;28;20570;-62
2021/05/09 01:36:29;;;;;;;3.10;2.70;;;11.60;73.20;;;;;;5051944;28;20200;-62
2021/05/09 01:38:55;;;;;;;4.23;3.10;;;11.50;45.40;;;;;;5052705;28;20423;-62
2021/05/09 01:41:26;;;;;;;3.10;2.67;;;11.50;56.20;;;;;;5052755;28;20477;-62
2021/05/09 01:43:52;;;;;;;3.78;3.20;;;11.60;43.10;;;;;;5052463;28;20211;-62
2021/05/09 01:46:17;;;;;;;7.07;3.07;;;11.60;21.70;;;;;;5052791;28;20913;-62
2021/05/09 01:48:43;;;;;;;3.50;3.20;;;11.70;6.50;;;;;;5053409;28;20182;-62
2021/05/09 01:51:08;;;;;;;3.20;2.90;;;11.60;1.00;;;;;;5056693;28;20188;-62
2021/05/09 01:53:37;;;;;;;3.90;2.90;;;11.80;1.00;;;;;;5056393;28;20231;-62
2021/05/09 01:56:03;;;;;;;2.97;2.78;;;12.00;1.00;;;;;;5056394;28;20200;-63
2021/05/09 01:58:29;;;;;;;3.00;2.65;;;12.00;1.00;;;;;;5056459;28;20256;-62
2021/05/09 02:00:54;;;;;;;3.40;2.50;;;12.10;1.00;;;;;;5056712;28;20267;-62
2021/05/09 02:03:20;;;;;;;2.50;2.30;;;12.10;1.00;;;;;;5055381;28;20176;-62
2021/05/09 02:05:45;;;;;;;2.70;2.40;;;12.10;1.00;;;;;;5055281;28;20725;-63
2021/05/09 02:08:11;;;;;;;3.87;2.77;;;12.10;1.00;;;;;;5056442;28;20504;-63
2021/05/09 02:10:36;;;;;;;2.47;2.27;;;12.20;1.00;;;;;;5056427;28;20510;-63
2021/05/09 02:13:02;;;;;;;2.63;2.43;;;12.30;1.00;;;;;;5056425;28;20514;-63
2021/05/09 02:15:28;;;;;;;4.55;2.45;;;12.10;1.00;;;;;;5056230;28;20200;-63
2021/05/09 02:17:53;;;;;;;2.43;2.23;;;12.20;1.00;;;;;;5056446;28;20274;-62
2021/05/09 02:20:19;;;;;;;3.63;2.57;;;12.20;1.00;;;;;;5056340;28;20214;-65
2021/05/09 02:22:45;;;;;;;5.53;2.50;;;12.30;1.00;;;;;;5056722;28;20173;-65
2021/05/09 02:25:11;;;;;;;3.33;3.03;;;12.30;1.00;;;;;;5055971;28;20177;-65
2021/05/09 02:27:36;;;;;;;2.80;2.20;;;12.30;1.00;;;;;;5055973;28;20543;-65
2021/05/09 02:30:03;;;;;;;3.23;2.30;;;12.30;1.00;;;;;;5055402;28;20528;-65
2021/05/09 02:32:28;;;;;;;2.38;2.17;;;12.30;1.00;;;;;;5056386;28;20614;-65
2021/05/09 02:34:54;;;;;;;7.37;3.70;;;12.30;1.00;;;;;;5056897;28;20183;-65
2021/05/09 02:37:19;;;;;;;2.27;2.07;;;12.50;1.00;;;;;;5057629;28;20629;-65
2021/05/09 02:39:46;;;;;;;4.00;2.47;;;12.40;99.90;;;;;;5058189;28;20212;-65
2021/05/09 02:42:11;;;;;;;3.97;2.80;;;12.60;99.90;;;;;;5056886;28;20260;-65
2021/05/09 02:44:37;;;;;;;2.80;2.60;;;12.70;99.90;;;;;;5056652;28;20637;-65
2021/05/09 02:47:03;;;;;;;2.47;2.00;;;12.70;99.90;;;;;;5056653;28;20197;-65
2021/05/09 02:49:29;;;;;;;2.90;2.37;;;12.50;99.90;;;;;;5056627;28;20188;-65
2021/05/09 02:51:54;;;;;;;2.87;2.37;;;12.50;99.90;;;;;;5056122;28;20181;-65
2021/05/09 02:54:20;;;;;;;3.03;2.40;;;12.50;99.90;;;;;;5055216;28;20588;-65
2021/05/09 02:56:45;;;;;;;3.77;2.37;;;12.60;99.90;;;;;;5055357;28;20205;-65
2021/05/09 02:59:11;;;;;;;3.37;2.47;;;12.60;99.90;;;;;;5055627;28;20184;-65
2021/05/09 03:01:36;;;;;;;3.53;2.43;;;12.60;99.90;;;;;;5054071;28;20177;-65
2021/05/09 03:04:02;;;;;;;3.40;2.20;;;12.60;99.90;;;;;;5054937;28;20272;-65
2021/05/09 03:06:27;;;;;;;3.10;2.53;;;12.70;99.90;;;;;;5055515;28;20327;-65
2021/05/09 03:08:53;;;;;;;2.60;1.93;;;12.70;99.90;;;;;;5055233;28;20193;-65
2021/05/09 03:11:20;;;;;;;3.30;2.30;;;12.60;99.90;;;;;;5055217;28;20529;-65
2021/05/09 03:13:46;;;;;;;2.60;2.20;;;12.60;99.90;;;;;;5053759;28;20184;-65
2021/05/09 03:16:11;;;;;;;3.90;1.97;;;12.70;99.90;;;;;;5055129;28;20261;-65
2021/05/09 03:18:37;;;;;;;2.40;2.20;;;12.60;99.90;;;;;;5055289;28;20169;-65
2021/05/09 03:21:03;;;;;;;3.73;2.43;;;12.60;99.90;;;;;;5055153;28;20617;-65
2021/05/09 03:23:28;;;;;;;2.93;2.30;;;12.70;99.90;;;;;;5055011;28;20207;-65
2021/05/09 03:25:54;;;;;;;2.47;2.17;;;12.70;99.90;;;;;;5054821;28;20188;-65
2021/05/09 03:28:19;;;;;;;2.43;2.20;;;12.80;99.90;;;;;;5054865;28;20172;-65
2021/05/09 03:30:45;;;;;;;6.80;2.23;;;12.80;1.00;;;;;;5055383;28;20188;-65
2021/05/09 03:33:10;;;;;;;2.87;2.17;;;12.80;1.00;;;;;;5055265;28;20583;-65
2021/05/09 03:35:36;;;;;;;2.43;2.23;;;12.80;1.00;;;;;;5054163;28;20177;-65
2021/05/09 03:38:02;;;;;;;2.60;2.40;;;12.90;1.00;;;;;;5055207;28;20219;-65
2021/05/09 03:40:28;;;;;;;2.35;2.15;;;12.90;1.00;;;;;;5057183;28;20199;-65
2021/05/09 03:42:54;;;;;;;2.47;2.23;;;12.90;1.00;;;;;;5060099;28;20630;-65
2021/05/09 03:45:19;;;;;;;2.87;2.30;;;12.90;1.00;;;;;;5060548;28;20188;-65
2021/05/09 03:47:45;;;;;;;2.33;2.10;;;12.90;1.00;;;;;;5057215;28;20193;-65
2021/05/09 03:50:11;;;;;;;4.23;2.10;;;13.10;1.00;;;;;;5059561;28;20499;-64
2021/05/09 03:52:36;;;;;;;3.03;2.20;;;13.20;99.90;;;;;;5061382;28;20228;-65
2021/05/09 03:55:05;;;;;;;2.60;2.40;;;13.30;92.50;;;;;;5060888;28;20188;-65
2021/05/09 03:57:31;;;;;;;2.50;2.33;;;13.40;99.90;;;;;;5061043;28;20224;-65
2021/05/09 03:59:56;;;;;;;3.27;2.43;;;13.50;1.00;;;;;;5060909;28;20181;-65
2021/05/09 04:02:22;;;;;;;2.30;2.10;;;13.40;1.00;;;;;;5061084;28;20196;-65
2021/05/09 04:04:47;;;;;;;2.53;2.33;;;13.30;1.00;;;;;;5055878;28;20185;-65
2021/05/09 04:07:13;;;;;;;2.20;2.00;;;13.30;1.00;;;;;;5054349;28;20222;-65
2021/05/09 04:09:39;;;;;;;2.40;2.20;;;13.40;99.90;;;;;;5054126;28;20181;-65
2021/05/09 04:12:05;;;;;;;3.10;2.80;;;13.50;1.00;;;;;;5053788;28;20189;-65
2021/05/09 04:14:34;;;;;;;2.20;2.00;;;13.50;99.90;;;;;;5053983;28;20252;-65
2021/05/09 04:16:59;;;;;;;2.50;2.00;;;13.50;98.60;;;;;;5053909;28;20283;-65
2021/05/09 04:19:25;;;;;;;5.30;2.20;;;13.50;98.20;;;;;;5054019;28;20232;-65
2021/05/09 04:21:51;;;;;;;2.50;1.80;;;13.60;26.60;;;;;;5053096;28;20181;-66
2021/05/09 04:24:16;;;;;;;2.80;1.77;;;13.50;1.00;;;;;;5053552;28;20238;-64
2021/05/09 04:26:42;;;;;;;3.63;2.37;;;13.60;1.00;;;;;;5053814;28;20181;-64
2021/05/09 04:29:09;;;;;;;2.10;1.90;;;13.60;99.90;;;;;;5053939;28;20207;-65
2021/05/09 04:31:34;;;;;;;1.67;1.58;;;13.80;1.00;;;;;;5053719;28;20181;-65
2021/05/09 04:34:00;;;;;;;4.30;2.20;;;13.90;1.00;;;;;;5053118;28;20183;-65
2021/05/09 04:36:26;;;;;;;2.30;2.00;;;14.00;99.90;;;;;;5053472;28;20276;-65
2021/05/09 04:38:51;;;;;;;4.73;2.20;;;14.10;99.90;;;;;;5053420;28;20184;-64
2021/05/09 04:41:17;;;;;;;7.93;2.40;;;14.30;1.00;;;;;;5052663;28;20181;-66
2021/05/09 04:43:43;;;;;;;2.20;1.77;;;14.30;1.00;;;;;;5053135;28;20184;-65
2021/05/09 04:46:08;;;;;;;3.40;2.07;;;14.60;99.90;;;;;;5053403;28;20533;-64
2021/05/09 04:48:34;;;;;;;4.20;2.03;;;14.80;1.00;;;;;;5053354;28;20748;-64
2021/05/09 04:50:59;;;;;;;2.80;1.60;;;14.80;1.00;;;;;;5053495;28;20272;-64
2021/05/09 04:53:34;;;;;;;2.50;1.90;;;14.80;1.00;;;;;;5052470;28;20176;-64
2021/05/09 04:56:02;;;;;;;2.93;2.00;;;14.80;1.00;;;;;;5053128;28;20512;-64
2021/05/09 04:58:29;;;;;;;2.90;2.03;;;15.20;1.00;;;;;;5053366;28;20896;-63
2021/05/09 05:01:01;;;;;;;2.10;1.60;;;16.50;1.00;;;;;;5052251;28;20423;-63
2021/05/09 05:03:33;;;;;;;2.13;1.90;;;17.80;99.90;;;;;;5052884;28;20942;-63
2021/05/09 05:06:00;;;;;;;3.13;2.77;;;19.10;1.00;;;;;;5053034;28;20434;-63
2021/05/09 05:08:27;;;;;;;2.77;2.17;;;19.30;1.00;;;;;;5053231;28;20450;-63
2021/05/09 05:10:53;;;;;;;1.97;1.77;;;20.60;1.00;;;;;;5053243;28;20450;-63
2021/05/09 05:13:31;;;;;;;2.37;2.00;;;21.30;1.00;;;;;;5053030;28;20428;-63
2021/05/09 05:15:58;;;;;;;3.30;1.93;;;21.80;1.00;;;;;;5052984;28;20211;-63
2021/05/09 05:18:27;;;;;;;2.00;1.83;;;22.00;1.00;;;;;;5053038;28;20427;-63
2021/05/09 05:21:02;;;;;;;2.70;2.00;;;22.10;1.00;;;;;;5052924;28;20930;-64
2021/05/09 05:23:29;;;;;;;2.70;1.63;;;23.10;1.00;;;;;;5051936;28;20434;-63
2021/05/09 05:25:55;;;;;;;2.40;1.80;;;23.70;1.00;;;;;;5052943;28;20502;-64
2021/05/09 05:28:21;;;;;;;4.60;2.37;;;23.80;1.00;;;;;;5052971;28;20853;-64
2021/05/09 05:30:46;;;;;;;2.57;2.20;;;23.80;1.00;;;;;;5053058;28;20176;-63
2021/05/09 05:33:33;;;;;;;3.70;2.00;;;23.30;1.00;;;;;;5051982;28;20193;-63
2021/05/09 05:36:01;;;;;;;1.93;1.80;;;24.00;1.00;;;;;;5052820;28;20168;-65
2021/05/09 05:38:27;;;;;;;3.10;1.93;;;24.00;1.00;;;;;;5053385;28;20435;-65
2021/05/09 05:40:55;;;;;;;2.97;1.87;;;23.80;1.00;;;;;;5053199;28;20497;-65
2021/05/09 05:43:26;;;;;;;2.20;1.90;;;24.40;1.00;;;;;;5052208;28;20455;-65
2021/05/09 05:45:52;;;;;;;2.47;1.83;;;23.50;1.00;;;;;;5052784;28;20983;-65
2021/05/09 05:48:19;;;;;;;2.67;1.77;;;23.30;1.00;;;;;;5052692;28;20508;-65
2021/05/09 05:50:45;;;;;;;2.20;1.70;;;24.00;1.00;;;;;;5052940;28;20862;-65
2021/05/09 05:53:17;;;;;;;1.93;1.57;;;24.30;1.00;;;;;;5052375;28;20506;-67
2021/05/09 05:55:44;;;;;;;1.83;1.67;;;24.80;1.00;;;;;;5052324;28;20510;-67
2021/05/09 05:58:09;;;;;;;2.70;1.77;;;25.10;1.00;;;;;;5052415;28;20852;-68
2021/05/09 06:00:35;;;;;;;2.67;1.80;;;25.00;1.00;;;;;;5052504;28;20576;-67
2021/05/09 06:03:00;;;;;;;2.43;1.80;;;24.40;1.00;;;;;;5052542;28;20260;-67
2021/05/09 06:05:26;;;;;;;3.37;1.70;;;24.30;1.00;;;;;;5052231;28;20264;-67
2021/05/09 06:07:51;;;;;;;3.60;2.90;;;24.20;1.00;;;;;;5052373;28;20266;-65
2021/05/09 06:10:17;;;;;;;2.70;1.70;;;24.40;1.00;;;;;;5052509;28;20238;-65
2021/05/09 06:12:42;;;;;;;1.70;1.40;;;25.50;1.00;;;;;;5052621;28;20279;-65
2021/05/09 06:15:08;;;;;;;2.67;2.00;;;25.00;1.00;;;;;;5052228;28;20177;-65
2021/05/09 06:17:34;;;;;;;1.80;1.63;;;25.20;1.00;;;;;;5052629;28;20201;-65
2021/05/09 06:20:00;;;;;;;2.80;1.60;;;24.70;1.00;;;;;;5052477;28;20811;-65
2021/05/09 06:22:29;;;;;;;2.10;1.83;;;25.20;1.00;;;;;;5052439;28;20509;-66
2021/05/09 06:24:54;;;;;;;2.10;1.87;;;25.10;1.00;;;;;;5052164;28;20201;-65
2021/05/09 06:27:20;;;;;;;2.87;2.10;;;24.90;1.00;;;;;;5052404;28;20534;-65
2021/05/09 06:29:45;;;;;;;2.20;1.67;;;24.90;1.00;;;;;;5052409;28;20211;-65
2021/05/09 06:32:11;;;;;;;2.97;1.97;;;23.90;1.00;;;;;;5052368;28;20246;-66
2021/05/09 06:34:37;;;;;;;2.90;1.80;;;24.80;1.00;;;;;;5051310;28;20505;-65
2021/05/09 06:37:03;;;;;;;2.30;2.10;;;24.80;1.00;;;;;;5055890;28;20212;-67
2021/05/09 06:39:29;;;;;;;2.50;1.87;;;25.50;1.00;;;;;;5056141;28;20427;-67
2021/05/09 06:41:58;;;;;;;2.90;2.00;;;26.60;1.00;;;;;;5056003;28;20181;-67
2021/05/09 06:44:27;;;;;;;2.37;2.17;;;25.90;1.00;;;;;;5054631;28;20431;-67
2021/05/09 06:46:52;;;;;;;2.10;1.47;;;26.20;1.00;;;;;;5055733;28;20431;-67
2021/05/09 06:49:18;;;;;;;2.60;1.93;;;26.50;1.00;;;;;;5055741;28;20493;-67
2021/05/09 06:51:43;;;;;;;3.87;2.40;;;25.70;1.00;;;;;;5054737;28;20621;-67
2021/05/09 06:54:09;;;;;;;2.97;1.80;;;25.60;1.00;;;;;;5055537;28;20534;-67
2021/05/09 06:56:36;;;;;;;2.17;1.77;;;25.20;1.00;;;;;;5054698;28;20587;-66
2021/05/09 06:59:03;;;;;;;2.50;1.73;;;25.90;1.00;;;;;;5055713;28;20184;-65
2021/05/09 07:01:29;;;;;;;2.40;2.17;;;26.60;1.00;;;;;;5055616;28;20434;-67
2021/05/09 07:03:55;;;;;;;2.40;1.67;;;26.20;1.00;;;;;;5054060;28;20845;-67
2021/05/09 07:06:21;;;;;;;2.97;1.90;;;26.60;1.00;;;;;;5054299;28;20192;-67
2021/05/09 07:08:46;;;;;;;2.43;2.03;;;25.40;1.00;;;;;;5055088;28;20441;-67
2021/05/09 07:11:12;;;;;;;3.00;2.03;;;26.50;1.00;;;;;;5055530;28;20591;-67
2021/05/09 07:13:37;;;;;;;2.27;1.90;;;25.90;1.00;;;;;;5055444;28;20181;-66
2021/05/09 07:16:03;;;;;;;2.87;1.87;;;25.60;1.00;;;;;;5055420;28;20185;-66
2021/05/09 07:18:30;;;;;;;2.93;1.60;;;25.70;1.00;;;;;;5055370;28;20184;-67
2021/05/09 07:20:58;;;;;;;2.77;1.73;;;25.60;1.00;;;;;;5055292;28;20173;-66
2021/05/09 07:23:26;;;;;;;3.70;1.87;;;26.20;1.00;;;;;;5055213;28;20419;-66
2021/05/09 07:25:51;;;;;;;3.57;1.90;;;26.30;1.00;;;;;;5053941;28;20434;-65
2021/05/09 07:28:19;;;;;;;3.20;2.00;;;25.70;1.00;;;;;;5054328;28;20450;-65
2021/05/09 07:30:47;;;;;;;2.80;1.87;;;24.50;1.00;;;;;;5055236;28;20299;-65
2021/05/09 07:33:14;;;;;;;2.30;2.10;;;23.00;1.00;;;;;;5055132;28;20449;-65
2021/05/09 07:35:41;;;;;;;2.20;2.00;;;21.90;1.00;;;;;;5055349;28;20869;-65
2021/05/09 07:38:08;;;;;;;2.73;2.10;;;21.40;1.00;;;;;;5055009;28;20493;-65
2021/05/09 07:40:35;;;;;;;3.80;3.07;;;21.60;1.00;;;;;;5054656;28;20412;-65
2021/05/09 07:43:00;;;;;;;3.43;2.20;;;21.40;1.00;;;;;;5055025;28;20454;-65
2021/05/09 07:45:26;;;;;;;1.83;1.63;;;21.30;1.00;;;;;;5054545;28;20451;-65
2021/05/09 07:47:52;;;;;;;2.23;2.03;;;21.30;1.00;;;;;;5054021;28;20177;-65
2021/05/09 07:50:19;;;;;;;2.07;1.87;;;21.00;1.00;;;;;;5055180;28;20849;-65
2021/05/09 07:52:46;;;;;;;2.30;1.97;;;20.80;1.00;;;;;;5055145;28;20188;-66
2021/05/09 07:55:13;;;;;;;3.80;2.10;;;20.90;1.00;;;;;;5054798;28;20445;-66
2021/05/09 07:57:39;;;;;;;2.73;2.37;;;20.90;1.70;;;;;;5055214;28;20467;-65
2021/05/09 08:00:12;;;;;;;2.97;2.60;;;21.00;1.00;;;;;;5054897;28;20420;-66
2021/05/09 08:02:38;;;;;;;2.97;2.30;;;21.00;1.00;;;;;;5054644;28;20266;-65
2021/05/09 08:05:04;;;;;;;3.57;2.03;;;20.80;1.00;;;;;;5054106;28;20879;-65
2021/05/09 08:07:29;;;;;;;2.00;1.80;;;21.00;24.60;;;;;;5054402;28;20442;-65
2021/05/09 08:09:55;;;;;;;2.67;2.13;;;21.30;1.00;;;;;;5054487;28;20415;-66
2021/05/09 08:12:21;;;;;;;2.23;1.93;;;21.40;1.00;;;;;;5054656;28;20181;-62
2021/05/09 08:14:48;;;;;;;3.60;2.00;;;21.40;1.00;;;;;;5054001;28;20426;-63
2021/05/09 08:17:13;;;;;;;2.60;2.13;;;21.50;1.00;;;;;;5054389;28;20215;-64
2021/05/09 08:19:39;;;;;;;2.90;1.97;;;21.60;1.00;;;;;;5054298;28;20755;-63
2021/05/09 08:22:05;;;;;;;3.83;2.23;;;22.00;1.00;;;;;;5054251;28;20169;-63
2021/05/09 08:24:31;;;;;;;5.07;2.30;;;22.20;1.00;;;;;;5052887;28;20177;-63
2021/05/09 08:26:57;;;;;;;3.63;1.90;;;22.10;1.00;;;;;;5054298;28;20520;-63
2021/05/09 08:29:23;;;;;;;2.00;1.80;;;21.80;1.00;;;;;;5052730;28;20431;-63
2021/05/09 08:31:49;;;;;;;2.47;1.90;;;21.70;1.00;;;;;;5053850;28;20438;-63
2021/05/09 08:34:14;;;;;;;4.17;2.10;;;21.80;1.00;;;;;;5053519;28;20424;-64
2021/05/09 08:36:40;;;;;;;3.63;2.33;;;22.00;1.00;;;;;;5053091;28;20227;-64
2021/05/09 08:39:06;;;;;;;2.33;2.10;;;22.30;1.00;;;;;;5054158;28;20181;-64
2021/05/09 08:41:33;;;;;;;3.50;2.07;;;22.40;1.00;;;;;;5053760;28;20184;-64
2021/05/09 08:43:58;;;;;;;4.27;2.47;;;22.30;1.00;;;;;;5053877;28;20539;-67
2021/05/09 08:46:27;;;;;;;3.00;1.90;;;22.20;1.00;;;;;;5054961;28;20451;-67
2021/05/09 08:48:54;;;;;;;3.83;2.30;;;22.10;1.00;;;;;;5054143;28;20622;-63
2021/05/09 08:51:21;;;;;;;3.47;2.30;;;22.20;1.00;;;;;;5053684;28;20452;-65
2021/05/09 08:53:48;;;;;;;3.93;2.20;;;22.10;1.00;;;;;;5054024;28;20426;-64
2021/05/09 08:56:14;;;;;;;4.80;2.20;;;22.40;1.00;;;;;;5053560;28;20501;-64
2021/05/09 08:58:39;;;;;;;3.90;2.60;;;22.50;1.00;;;;;;5053419;28;20896;-65
2021/05/09 09:01:05;;;;;;;2.27;2.07;;;22.40;1.00;;;;;;5053878;28;20242;-66
2021/05/09 09:03:33;;;;;;;2.80;2.23;;;22.50;1.00;;;;;;5052817;28;20181;-66
2021/05/09 09:06:00;;;;;;;2.63;1.90;;;22.50;1.00;;;;;;5053262;28;20810;-64
2021/05/09 09:08:26;;;;;;;4.37;2.30;;;22.80;1.00;;;;;;5053665;28;20884;-64
2021/05/09 09:10:53;;;;;;;3.93;2.00;;;22.90;1.00;;;;;;5053367;28;20458;-64
2021/05/09 09:13:22;;;;;;;4.30;2.10;;;22.90;1.00;;;;;;5052752;28;20553;-65
2021/05/09 09:15:49;;;;;;;2.17;1.80;;;22.80;1.00;;;;;;5054247;28;20435;-67
2021/05/09 09:18:34;;;;;;;1.93;1.70;;;22.70;1.00;;;;;;5054683;28;20467;-67
2021/05/09 09:21:24;;;;;;;1.90;1.63;;;22.60;1.00;;;;;;5054413;28;20431;-67
2021/05/09 09:23:55;;;;;;;4.27;2.23;;;22.80;1.00;;;;;;5053220;28;20451;-67
2021/05/09 09:26:31;;;;;;;3.83;2.03;;;23.20;1.00;;;;;;5052596;28;20521;-67
2021/05/09 09:28:58;;;;;;;3.20;2.30;;;23.40;1.00;;;;;;5053465;28;20462;-65
2021/05/09 09:31:42;;;;;;;3.13;2.10;;;23.40;1.00;;;;;;5052865;28;20966;-65
2021/05/09 09:34:09;;;;;;;3.20;2.30;;;23.60;1.00;;;;;;5052446;28;20449;-65
2021/05/09 09:36:35;;;;;;;3.00;2.10;;;23.90;1.00;;;;;;5053111;28;20474;-66
2021/05/09 09:39:01;;;;;;;3.07;2.00;;;23.80;1.00;;;;;;5053324;28;20423;-67
2021/05/09 09:41:27;;;;;;;3.77;2.37;;;23.60;1.00;;;;;;5053010;28;20455;-64
2021/05/09 09:44:01;;;;;;;2.63;2.00;;;23.50;1.00;;;;;;5052557;28;20462;-63
2021/05/09 09:46:38;;;;;;;4.13;2.20;;;23.50;1.00;;;;;;5052698;28;20211;-65
2021/05/09 09:49:27;;;;;;;2.80;1.70;;;23.90;1.00;;;;;;5052619;28;20434;-69
2021/05/09 09:51:54;;;;;;;3.07;1.90;;;23.70;1.00;;;;;;5052588;28;20966;-63
2021/05/09 09:54:44;;;;;;;2.20;1.87;;;23.90;1.00;;;;;;5052544;28;20427;-64
2021/05/09 09:57:24;;;;;;;3.20;2.40;;;23.60;1.00;;;;;;5052629;28;20482;-64
2021/05/09 10:00:12;;;;;;;2.97;2.13;;;23.60;1.00;;;;;;5051741;28;20508;-64
2021/05/09 10:02:43;;;;;;;3.90;2.20;;;23.60;1.00;;;;;;5052849;28;20431;-63
2021/05/09 10:05:10;;;;;;;2.80;2.07;;;23.70;1.00;;;;;;5052471;28;20443;-63
2021/05/09 10:07:35;;;;;;;3.97;2.00;;;24.00;1.00;;;;;;5051840;28;20428;-63
2021/05/09 10:10:03;;;;;;;4.00;2.40;;;24.20;1.00;;;;;;5053690;28;20851;-63
2021/05/09 10:12:28;;;;;;;1.93;1.63;;;24.30;1.00;;;;;;5056956;28;20256;-65
2021/05/09 10:14:54;;;;;;;5.83;2.17;;;24.50;1.00;;;;;;5056436;28;20502;-65
2021/05/09 10:17:21;;;;;;;3.40;2.10;;;24.60;1.00;;;;;;5056654;28;20646;-64
2021/05/09 10:19:47;;;;;;;3.60;2.10;;;24.40;1.00;;;;;;5056850;28;20181;-63
2021/05/09 10:22:30;;;;;;;4.57;2.33;;;24.30;1.00;;;;;;5051905;28;20455;-65
2021/05/09 10:25:00;;;;;;;2.60;2.07;;;24.30;1.00;;;;;;5052507;28;20435;-63
2021/05/09 10:27:37;;;;;;;2.80;2.10;;;24.20;1.00;;;;;;5056180;28;20484;-69
2021/05/09 10:30:11;;;;;;;2.30;1.57;;;24.60;1.00;;;;;;5055623;28;20458;-70
2021/05/09 10:32:36;;;;;;;3.77;2.60;;;24.90;1.00;;;;;;5050736;28;20435;-71
2021/05/09 10:35:06;;;;;;;3.80;1.73;;;24.90;1.00;;;;;;5057278;28;20777;-69
2021/05/09 10:40:27;;;;;;;5.80;2.60;;;25.30;1.00;;;;;;5048789;28;20441;-72
2021/05/09 10:43:04;;;;;;;3.03;2.23;;;25.40;1.00;;;;;;5055395;28;20433;-72
2021/05/09 10:45:33;;;;;;;3.77;3.10;;;25.40;1.00;;;;;;5055332;28;20427;-70
2021/05/09 10:50:54;;;;;;;3.67;3.37;;;25.20;1.00;;;;;;5055878;28;20442;-64
2021/05/09 10:53:35;;;;;;;3.40;3.10;;;25.40;1.00;;;;;;5056336;28;20888;-64
2021/05/09 10:56:04;;;;;;;1.90;1.70;;;25.40;1.00;;;;;;5055537;28;20172;-68
2021/05/09 10:58:44;;;;;;;2.67;1.80;;;24.90;1.00;;;;;;5055878;28;20434;-63
2021/05/09 11:01:10;;;;;;;3.97;3.50;;;24.90;1.00;;;;;;5055870;28;20427;-62
2021/05/09 11:03:39;;;;;;;4.37;2.50;;;24.70;1.00;;;;;;5056065;28;20426;-65
2021/05/09 11:06:16;;;;;;;4.37;2.40;;;24.80;1.00;;;;;;5055754;28;20595;-66
2021/05/09 11:08:42;;;;;;;5.00;2.93;;;25.00;1.00;;;;;;5054481;28;20450;-62
2021/05/09 11:11:27;;;;;;;3.23;2.50;;;25.10;1.00;;;;;;5055805;28;20466;-62
2021/05/09 11:14:02;;;;;;;3.70;1.93;;;25.00;1.00;;;;;;5034702;28;20836;-63
2021/05/09 11:16:40;;;;;;;3.20;1.90;;;25.30;1.00;;;;;;5055420;28;20847;-62
2021/05/09 11:19:14;;;;;;;5.30;4.23;;;25.50;1.00;;;;;;5051779;28;20802;-64
2021/05/09 11:21:49;;;;;;;2.43;1.80;;;25.60;1.00;;;;;;5042111;28;20435;-66
2021/05/09 11:24:27;;;;;;;2.53;2.07;;;25.70;1.00;;;;;;5042197;28;20436;-66
2021/05/09 11:26:55;;;;;;;2.60;2.17;;;25.80;1.00;;;;;;5053565;28;20433;-67
2021/05/09 11:29:28;;;;;;;2.10;1.80;;;25.90;1.00;;;;;;5052554;28;20537;-65
2021/05/09 11:31:56;;;;;;;2.00;1.60;;;25.80;1.00;;;;;;5035850;28;20566;-58
2021/05/09 11:34:23;;;;;;;2.93;1.83;;;25.70;1.00;;;;;;5035185;28;20424;-58
2021/05/09 11:36:51;;;;;;;1.90;1.80;;;25.90;1.00;;;;;;5035715;28;20471;-61
2021/05/09 11:39:26;;;;;;;3.00;2.10;;;26.20;1.00;;;;;;5039628;28;20423;-62
2021/05/09 11:41:54;;;;;;;4.30;2.03;;;26.40;1.00;;;;;;5036800;28;20443;-61
2021/05/09 11:44:24;;;;;;;2.10;1.50;;;26.30;1.00;;;;;;5036143;28;20452;-61
2021/05/09 11:46:50;;;;;;;5.43;2.40;;;26.30;1.00;;;;;;5035852;28;20442;-61
2021/05/09 11:49:17;;;;;;;3.00;1.50;;;26.30;1.00;;;;;;5036240;28;20428;-64
2021/05/09 11:51:53;;;;;;;2.20;2.00;;;26.20;1.00;;;;;;5037023;28;20893;-65
2021/05/09 11:54:20;;;;;;;2.60;1.77;;;26.40;1.00;;;;;;5041822;28;20478;-64
2021/05/09 11:56:59;;;;;;;4.53;1.90;;;26.60;1.00;;;;;;5045275;28;20486;-64
2021/05/09 11:59:40;;;;;;;1.50;1.40;;;26.60;1.00;;;;;;5040559;28;20464;-59
2021/05/09 12:02:12;;;;;;;1.73;1.63;;;26.50;1.00;;;;;;5048776;28;20438;-60
2021/05/09 12:04:41;;;;;;;2.40;1.77;;;26.60;1.00;;;;;;5049997;28;20445;-59
2021/05/09 12:07:12;;;;;;;2.63;1.90;;;26.60;1.00;;;;;;5054010;28;20432;-59
2021/05/09 12:09:38;;;;;;;2.53;2.10;;;26.70;1.00;;;;;;5052481;28;20427;-59
2021/05/09 12:12:04;;;;;;;2.10;1.63;;;26.80;1.00;;;;;;5051699;28;20988;-60
2021/05/09 12:14:30;;;;;;;2.80;2.20;;;26.90;1.00;;;;;;5049949;28;20474;-59
2021/05/09 12:16:56;;;;;;;4.97;1.70;;;27.00;1.00;;;;;;5045534;28;20537;-63
2021/05/09 12:19:32;;;;;;;2.20;2.00;;;27.10;1.00;;;;;;5043129;28;20181;-64
2021/05/09 12:22:03;;;;;;;1.77;1.50;;;26.80;1.00;;;;;;5045014;28;20439;-65
2021/05/09 12:24:30;;;;;;;2.47;1.70;;;26.60;1.00;;;;;;5050445;28;20436;-61
2021/05/09 12:27:07;;;;;;;2.00;1.57;;;26.70;1.00;;;;;;5046771;28;20474;-60
2021/05/09 12:29:50;;;;;;;2.33;1.90;;;26.90;1.00;;;;;;5048551;28;20428;-60
2021/05/09 12:32:19;;;;;;;1.70;1.60;;;26.80;1.00;;;;;;5038143;28;20813;-60
2021/05/09 12:35:07;;;;;;;4.10;1.67;;;26.90;1.00;;;;;;5044043;28;20432;-65
2021/05/09 12:37:41;;;;;;;2.07;1.90;;;27.20;1.00;;;;;;5042322;28;20495;-61
2021/05/09 12:40:34;;;;;;;2.80;2.50;;;27.10;1.00;;;;;;5041944;28;20514;-65
2021/05/09 12:43:08;;;;;;;1.97;1.77;;;26.90;1.00;;;;;;5040543;28;20969;-65
2021/05/09 12:45:40;;;;;;;2.60;2.20;;;27.00;1.00;;;;;;5045292;28;20435;-61
2021/05/09 12:48:29;;;;;;;2.50;1.83;;;27.10;1.00;;;;;;5050096;28;20443;-65
2021/05/09 12:51:03;;;;;;;4.03;3.63;;;27.20;1.00;;;;;;5048047;28;20895;-69
2021/05/09 12:53:45;;;;;;;3.53;3.23;;;27.40;1.00;;;;;;5042943;28;20484;-67
2021/05/09 12:56:32;;;;;;;1.97;1.67;;;27.80;1.00;;;;;;5043022;28;20481;-68
2021/05/09 12:59:13;;;;;;;2.50;1.90;;;27.80;1.00;;;;;;5036105;28;20512;-66
2021/05/09 13:01:42;;;;;;;1.83;1.47;;;27.70;1.00;;;;;;5033318;28;20436;-66
2021/05/09 13:04:35;;;;;;;1.83;1.67;;;27.80;1.00;;;;;;5033112;28;20900;-65
2021/05/09 13:07:03;;;;;;;1.63;1.43;;;27.70;1.00;;;;;;5033572;28;20424;-64